Time;durP1;ratioP1;P1;durP2;ratioP2;P2;SDS_P1;SDS_P2;PMS_P1;PMS_P2;Temp;Humidity;BMP_temperature;BMP_pressure;BME280_temperature;BME280_humidity;BME280_pressure;Samples;Min_cycle;Max_cycle;Signal;HPM_P1;HPM_P2
2021/12/08 00:00:46;;;;;;;6.22;1.50;;;6.90;99.90;;;;;;4993924;28;20394;-76
2021/12/08 00:03:14;;;;;;;6.43;1.67;;;6.80;99.90;;;;;;4993967;28;20101;-75
2021/12/08 00:05:41;;;;;;;9.05;2.25;;;6.90;99.90;;;;;;4993851;28;20084;-76
2021/12/08 00:08:08;;;;;;;6.78;1.98;;;6.90;99.90;;;;;;4994060;28;20065;-74
2021/12/08 00:13:07;;;;;;;12.10;2.30;;;6.90;99.90;;;;;;4994332;28;20030;-75
2021/12/08 00:15:35;;;;;;;8.07;3.10;;;6.90;99.90;;;;;;4994382;28;20069;-74
2021/12/08 00:18:04;;;;;;;7.65;2.20;;;6.90;99.90;;;;;;4993785;28;20106;-74
2021/12/08 00:20:32;;;;;;;12.32;2.45;;;6.90;99.90;;;;;;4994070;28;20049;-73
2021/12/08 00:22:59;;;;;;;7.88;1.70;;;6.90;99.90;;;;;;4993680;28;20026;-75
2021/12/08 00:25:25;;;;;;;7.20;1.63;;;6.90;99.90;;;;;;4993709;28;20073;-74
2021/12/08 00:27:51;;;;;;;6.53;1.50;;;6.80;99.90;;;;;;4993447;28;20121;-74
2021/12/08 00:30:17;;;;;;;8.45;2.03;;;6.90;99.90;;;;;;4993653;28;20386;-75
2021/12/08 00:32:44;;;;;;;6.25;1.60;;;6.90;99.90;;;;;;4993657;28;20474;-74
2021/12/08 00:35:10;;;;;;;6.25;1.50;;;6.90;99.90;;;;;;4993643;28;20018;-75
2021/12/08 00:37:36;;;;;;;5.20;1.75;;;6.90;99.90;;;;;;4993626;28;20422;-73
2021/12/08 00:40:04;;;;;;;3.13;1.10;;;6.90;99.90;;;;;;4993868;28;20026;-72
2021/12/08 00:42:30;;;;;;;2.83;0.70;;;6.90;99.90;;;;;;4993858;28;20026;-74
2021/12/08 00:44:58;;;;;;;1.63;0.85;;;6.90;99.90;;;;;;4993544;28;20076;-75
2021/12/08 00:47:23;;;;;;;4.75;1.25;;;6.90;99.90;;;;;;4993687;28;20026;-76
2021/12/08 00:49:49;;;;;;;2.30;0.65;;;6.90;99.90;;;;;;4993789;28;20018;-77
2021/12/08 00:52:15;;;;;;;4.13;0.82;;;6.90;99.90;;;;;;4993449;28;20053;-74
2021/12/08 00:54:41;;;;;;;1.45;0.80;;;6.80;99.90;;;;;;4994628;28;20383;-73
2021/12/08 00:57:08;;;;;;;3.50;1.40;;;6.80;99.90;;;;;;4997127;28;20034;-71
2021/12/08 00:59:34;;;;;;;7.28;1.20;;;6.80;99.90;;;;;;4997091;28;20031;-74
2021/12/08 01:02:02;;;;;;;4.32;1.15;;;6.80;99.90;;;;;;4997046;28;20034;-74
2021/12/08 01:04:35;;;;;;;10.60;1.30;;;6.80;99.90;;;;;;4997274;28;20022;-72
2021/12/08 01:07:02;;;;;;;5.63;1.08;;;6.70;99.90;;;;;;4996895;28;20038;-75
2021/12/08 01:09:28;;;;;;;3.55;1.27;;;6.80;99.90;;;;;;4996899;28;20022;-76
2021/12/08 01:11:55;;;;;;;4.93;1.23;;;6.70;99.90;;;;;;4997164;28;20022;-74
2021/12/08 01:14:21;;;;;;;4.63;1.15;;;6.70;99.90;;;;;;4997063;28;20019;-73
2021/12/08 01:16:47;;;;;;;4.68;1.00;;;6.70;99.90;;;;;;4996775;28;20030;-73
2021/12/08 01:19:13;;;;;;;3.00;1.25;;;6.70;99.90;;;;;;4996705;28;20023;-76
2021/12/08 01:21:38;;;;;;;4.00;1.13;;;6.70;99.90;;;;;;4979228;28;20117;-76
2021/12/08 01:24:04;;;;;;;2.83;1.60;;;6.70;99.90;;;;;;4996574;28;20046;-74
2021/12/08 01:26:30;;;;;;;4.97;1.52;;;6.70;99.90;;;;;;4996532;28;20121;-76
2021/12/08 01:28:57;;;;;;;8.15;2.00;;;6.70;99.90;;;;;;4996856;28;20483;-73
2021/12/08 01:31:24;;;;;;;4.65;1.17;;;6.70;99.90;;;;;;4996511;28;20022;-74
2021/12/08 01:33:49;;;;;;;6.00;1.17;;;6.70;99.90;;;;;;4996476;28;20077;-74
2021/12/08 01:36:15;;;;;;;4.82;1.20;;;6.70;99.90;;;;;;4996364;28;20026;-72
2021/12/08 01:38:41;;;;;;;7.82;1.13;;;6.70;99.90;;;;;;4996360;28;20034;-75
2021/12/08 01:41:07;;;;;;;3.63;0.90;;;6.60;99.90;;;;;;4978911;28;20113;-75
2021/12/08 01:46:25;;;;;;;2.47;1.13;;;6.60;99.90;;;;;;4966270;28;20042;-74
2021/12/08 01:48:51;;;;;;;4.03;1.00;;;6.60;99.90;;;;;;4996162;28;20076;-73
2021/12/08 01:51:17;;;;;;;9.65;1.17;;;6.50;99.90;;;;;;4996635;28;20022;-75
2021/12/08 01:53:47;;;;;;;4.60;1.05;;;6.50;99.90;;;;;;4996104;28;20026;-75
2021/12/08 01:56:13;;;;;;;5.95;1.75;;;6.50;99.90;;;;;;4996066;28;20028;-73
2021/12/08 01:58:39;;;;;;;4.22;1.20;;;6.40;99.90;;;;;;4995995;28;20026;-76
2021/12/08 02:01:11;;;;;;;3.45;1.00;;;6.40;99.90;;;;;;4995984;28;20459;-73
2021/12/08 02:03:39;;;;;;;4.72;1.05;;;6.40;99.90;;;;;;4996235;28;20033;-73
2021/12/08 02:06:06;;;;;;;6.45;1.63;;;6.40;99.90;;;;;;4994836;28;20433;-75
2021/12/08 02:08:33;;;;;;;2.70;0.70;;;6.40;99.90;;;;;;4995747;28;20054;-75
2021/12/08 02:11:00;;;;;;;3.95;0.70;;;6.40;99.90;;;;;;4995819;28;20025;-76
2021/12/08 02:13:28;;;;;;;2.80;0.52;;;6.40;99.90;;;;;;4996022;28;20031;-76
2021/12/08 02:15:54;;;;;;;3.78;0.90;;;6.40;99.90;;;;;;4995955;28;20042;-75
2021/12/08 02:18:19;;;;;;;1.70;0.98;;;6.30;99.90;;;;;;4995916;28;20096;-77
2021/12/08 02:20:48;;;;;;;6.60;1.00;;;6.30;99.90;;;;;;4995896;28;20050;-73
2021/12/08 02:23:15;;;;;;;3.08;1.00;;;6.30;99.90;;;;;;4995717;28;20031;-73
2021/12/08 02:25:41;;;;;;;3.80;1.30;;;6.30;99.90;;;;;;4995509;28;20026;-77
2021/12/08 02:28:08;;;;;;;3.33;1.02;;;6.20;99.90;;;;;;4995003;28;20043;-75
2021/12/08 02:47:07;;;;;;;5.47;1.20;;;6.30;99.90;;;;;;4995542;28;20045;-75
2021/12/08 02:49:33;;;;;;;8.57;1.40;;;6.20;99.90;;;;;;4977385;28;20525;-76
2021/12/08 02:52:00;;;;;;;5.75;1.45;;;6.20;99.90;;;;;;4994984;28;20076;-72
2021/12/08 02:54:40;;;;;;;6.40;1.23;;;6.20;99.90;;;;;;4994951;28;20019;-76
2021/12/08 02:57:06;;;;;;;10.75;1.50;;;6.20;99.90;;;;;;4995238;28;20517;-76
2021/12/08 02:59:32;;;;;;;3.25;1.10;;;6.30;99.90;;;;;;4994840;28;20121;-75
2021/12/08 03:01:58;;;;;;;6.70;1.65;;;6.30;99.90;;;;;;4994805;28;20022;-72
2021/12/08 03:04:24;;;;;;;3.63;1.40;;;6.30;99.90;;;;;;4994755;28;20548;-75
2021/12/08 03:06:50;;;;;;;4.90;1.20;;;6.30;99.90;;;;;;4994648;28;20064;-72
2021/12/08 03:09:16;;;;;;;3.05;1.25;;;6.20;99.90;;;;;;4994940;28;20015;-72
2021/12/08 03:11:41;;;;;;;9.80;1.70;;;6.20;99.90;;;;;;4994616;28;20478;-76
2021/12/08 03:14:10;;;;;;;6.20;1.67;;;6.20;99.90;;;;;;4994605;28;20022;-76
2021/12/08 03:16:40;;;;;;;5.70;1.50;;;6.20;99.90;;;;;;4995187;28;20026;-76
2021/12/08 03:19:07;;;;;;;4.25;1.52;;;6.10;99.90;;;;;;4994941;28;20026;-73
2021/12/08 03:21:33;;;;;;;7.03;1.77;;;6.10;99.90;;;;;;4994491;28;20030;-75
2021/12/08 03:24:32;;;;;;;7.25;1.88;;;6.00;99.90;;;;;;4994415;28;20456;-73
2021/12/08 03:32:09;;;;;;;5.68;1.83;;;6.00;99.90;;;;;;4994628;28;20486;-71
2021/12/08 03:34:38;;;;;;;6.85;1.60;;;6.00;99.90;;;;;;4994620;28;20022;-72
2021/12/08 03:37:06;;;;;;;3.90;1.20;;;6.00;99.90;;;;;;4994238;28;20030;-73
2021/12/08 03:39:32;;;;;;;4.63;1.45;;;6.00;99.90;;;;;;4994212;28;20105;-77
2021/12/08 03:41:59;;;;;;;3.58;1.23;;;6.10;99.90;;;;;;4994190;28;20046;-75
2021/12/08 03:44:24;;;;;;;5.53;1.33;;;6.00;99.90;;;;;;4994149;28;20030;-74
2021/12/08 03:46:53;;;;;;;4.80;1.50;;;6.00;99.90;;;;;;4994255;28;20494;-74
2021/12/08 03:49:19;;;;;;;3.03;1.10;;;6.10;99.90;;;;;;4994084;28;20077;-76
2021/12/08 03:51:45;;;;;;;5.75;1.55;;;6.00;99.90;;;;;;4994075;28;20057;-74
2021/12/08 03:54:12;;;;;;;2.53;0.85;;;6.10;99.90;;;;;;4993997;28;20046;-72
2021/12/08 03:56:38;;;;;;;7.28;1.38;;;6.00;99.90;;;;;;4993982;28;20391;-72
2021/12/08 03:59:05;;;;;;;7.03;1.25;;;6.00;99.90;;;;;;4993939;28;20019;-76
2021/12/08 04:01:32;;;;;;;5.38;1.60;;;5.90;99.90;;;;;;4994458;28;20467;-74
2021/12/08 04:04:06;;;;;;;3.55;0.93;;;6.00;99.90;;;;;;4994229;28;20050;-75
2021/12/08 04:06:40;;;;;;;3.45;1.00;;;6.00;99.90;;;;;;4993844;28;20026;-74
2021/12/08 04:09:17;;;;;;;4.32;1.00;;;6.00;99.90;;;;;;4993928;28;20025;-73
2021/12/08 04:11:44;;;;;;;8.00;1.15;;;5.90;99.90;;;;;;4994442;28;20026;-73
2021/12/08 04:14:13;;;;;;;2.72;1.15;;;5.90;99.90;;;;;;4994372;28;20022;-75
2021/12/08 04:16:44;;;;;;;4.60;1.23;;;5.90;99.90;;;;;;4993835;28;20106;-76
2021/12/08 04:19:11;;;;;;;4.32;1.10;;;5.90;99.90;;;;;;4976038;28;20076;-76
2021/12/08 04:21:38;;;;;;;7.40;1.20;;;6.00;99.90;;;;;;4993816;28;20029;-76
2021/12/08 04:24:05;;;;;;;5.32;1.00;;;5.90;99.90;;;;;;4976212;28;20022;-75
2021/12/08 04:26:36;;;;;;;4.63;0.88;;;5.90;99.90;;;;;;4993439;28;20058;-73
2021/12/08 04:29:06;;;;;;;3.83;1.10;;;5.90;99.90;;;;;;4994229;28;20014;-75
2021/12/08 04:31:35;;;;;;;3.25;0.85;;;5.80;99.90;;;;;;4997631;28;20022;-74
2021/12/08 04:34:05;;;;;;;6.68;1.40;;;5.80;99.90;;;;;;4997580;28;20038;-74
2021/12/08 04:36:39;;;;;;;2.67;0.90;;;5.80;99.90;;;;;;4998081;28;20035;-73
2021/12/08 04:39:12;;;;;;;4.10;0.90;;;5.80;99.90;;;;;;4979751;28;20080;-72
2021/12/08 04:41:44;;;;;;;2.55;0.80;;;5.80;99.90;;;;;;4997766;28;20079;-76
2021/12/08 04:52:49;;;;;;;2.45;0.68;;;5.70;99.90;;;;;;4997768;28;20033;-76
2021/12/08 05:03:43;;;;;;;5.03;0.90;;;5.70;99.90;;;;;;4997364;28;20034;-76
2021/12/08 05:06:39;;;;;;;2.13;0.70;;;5.70;99.90;;;;;;4996853;28;20031;-75
2021/12/08 05:09:21;;;;;;;4.20;0.70;;;5.70;99.90;;;;;;4997522;28;20030;-76
2021/12/08 05:11:51;;;;;;;3.03;0.85;;;5.70;99.90;;;;;;4997207;28;20099;-74
2021/12/08 05:14:23;;;;;;;2.47;1.20;;;5.70;99.90;;;;;;4997165;28;20014;-76
2021/12/08 05:16:53;;;;;;;3.10;1.33;;;5.70;99.90;;;;;;4997089;28;20034;-73
2021/12/08 05:19:22;;;;;;;4.55;1.02;;;5.80;99.90;;;;;;4996792;28;20050;-74
2021/12/08 05:21:56;;;;;;;3.65;1.80;;;5.70;99.90;;;;;;4996735;28;20101;-72
2021/12/08 05:24:32;;;;;;;6.57;2.67;;;5.80;99.90;;;;;;4997150;28;20022;-74
2021/12/08 05:27:30;;;;;;;5.97;1.70;;;5.80;99.90;;;;;;4996394;28;20077;-72
2021/12/08 05:30:06;;;;;;;2.05;1.27;;;5.80;99.90;;;;;;4981306;28;20035;-75
2021/12/08 05:32:33;;;;;;;4.00;1.48;;;5.80;99.90;;;;;;4996755;28;20034;-76
2021/12/08 05:34:59;;;;;;;4.40;1.27;;;5.90;99.90;;;;;;4996989;28;20018;-76
2021/12/08 05:37:26;;;;;;;4.50;1.30;;;5.90;99.90;;;;;;4996729;28;20105;-73
2021/12/08 05:39:54;;;;;;;7.40;2.42;;;5.90;99.90;;;;;;4996818;28;20030;-76
2021/12/08 05:42:25;;;;;;;8.70;3.17;;;6.00;99.90;;;;;;4996352;28;20031;-73
2021/12/08 05:44:51;;;;;;;12.60;5.78;;;6.00;99.90;;;;;;4996853;28;20042;-73
2021/12/08 05:47:20;;;;;;;7.88;1.83;;;6.00;99.90;;;;;;4996710;28;20098;-76
2021/12/08 05:49:46;;;;;;;3.63;1.67;;;6.00;99.90;;;;;;4996216;28;20475;-72
2021/12/08 05:52:13;;;;;;;5.07;2.45;;;6.00;99.90;;;;;;4996137;28;20479;-74
2021/12/08 05:54:41;;;;;;;6.47;2.75;;;6.00;99.90;;;;;;4996164;28;20018;-74
2021/12/08 05:57:14;;;;;;;6.45;2.60;;;6.10;99.90;;;;;;4996096;28;20030;-76
2021/12/08 05:59:40;;;;;;;3.92;2.15;;;6.10;99.90;;;;;;4996096;28;20030;-75
2021/12/08 06:02:22;;;;;;;5.85;2.13;;;6.10;99.90;;;;;;4995976;28;20030;-76
2021/12/08 06:04:48;;;;;;;7.50;2.45;;;6.10;99.90;;;;;;4996553;28;20566;-75
2021/12/08 06:07:15;;;;;;;23.15;14.65;;;6.10;99.90;;;;;;4995801;28;20121;-73
2021/12/08 06:09:41;;;;;;;13.30;7.38;;;6.10;99.90;;;;;;4996391;28;20026;-73
2021/12/08 06:12:09;;;;;;;9.95;5.18;;;6.10;99.90;;;;;;4995773;28;20562;-74
2021/12/08 06:14:36;;;;;;;3.53;1.73;;;6.10;99.90;;;;;;4995738;28;20102;-73
2021/12/08 06:17:07;;;;;;;5.55;1.45;;;6.00;99.90;;;;;;4995672;28;20022;-73
2021/12/08 06:19:36;;;;;;;5.55;2.55;;;6.10;99.90;;;;;;4996228;28;20037;-76
2021/12/08 06:22:02;;;;;;;3.80;1.30;;;6.10;99.90;;;;;;4995611;28;20034;-76
2021/12/08 06:24:28;;;;;;;9.23;3.60;;;6.10;99.90;;;;;;4996010;28;20026;-73
2021/12/08 06:26:54;;;;;;;7.35;3.28;;;6.10;99.90;;;;;;4995240;28;20047;-75
2021/12/08 06:29:20;;;;;;;11.65;4.47;;;6.00;99.90;;;;;;4995443;28;20041;-74
2021/12/08 06:31:49;;;;;;;8.93;3.42;;;6.00;99.90;;;;;;4995376;28;20463;-73
2021/12/08 06:34:15;;;;;;;9.00;6.10;;;6.00;99.90;;;;;;4995358;28;20105;-76
2021/12/08 06:37:04;;;;;;;7.07;3.63;;;6.10;99.90;;;;;;4995613;28;20474;-73
2021/12/08 06:39:38;;;;;;;6.38;3.67;;;6.00;99.90;;;;;;4995317;28;20019;-76
2021/12/08 06:42:17;;;;;;;6.65;3.47;;;6.00;99.90;;;;;;4995431;28;20030;-74
2021/12/08 06:44:47;;;;;;;2.70;1.50;;;6.00;99.90;;;;;;4995292;28;20429;-72
2021/12/08 06:47:16;;;;;;;2.83;1.98;;;6.00;99.90;;;;;;4995187;28;20100;-74
2021/12/08 06:49:45;;;;;;;10.90;5.38;;;6.00;99.90;;;;;;4995370;28;20026;-74
2021/12/08 06:52:16;;;;;;;6.72;3.95;;;6.00;99.90;;;;;;4995003;28;20434;-72
2021/12/08 06:54:51;;;;;;;8.38;2.20;;;6.00;99.90;;;;;;4995168;28;20030;-74
2021/12/08 06:57:23;;;;;;;6.85;1.83;;;6.00;99.90;;;;;;4995545;28;20033;-72
2021/12/08 06:59:57;;;;;;;10.07;5.53;;;6.00;99.90;;;;;;4995211;28;20034;-76
2021/12/08 07:03:31;;;;;;;7.38;4.60;;;6.00;99.90;;;;;;4994874;28;20033;-76
2021/12/08 07:05:30;;;;;;;8.63;4.28;;;6.00;99.90;;;;;;4977564;28;20039;-74
2021/12/08 07:08:02;;;;;;;6.30;2.30;;;6.00;99.90;;;;;;4995005;28;20022;-76
2021/12/08 07:10:36;;;;;;;6.78;2.08;;;6.00;99.90;;;;;;4995003;28;20025;-74
2021/12/08 07:13:12;;;;;;;5.30;2.88;;;6.00;99.90;;;;;;4995064;28;20030;-76
2021/12/08 07:15:41;;;;;;;6.28;2.92;;;6.00;99.90;;;;;;4995381;28;20037;-74
2021/12/08 07:18:13;;;;;;;5.15;1.80;;;6.00;99.90;;;;;;4995099;28;20053;-76
2021/12/08 07:20:46;;;;;;;3.67;1.50;;;6.00;99.90;;;;;;4994618;28;20038;-74
2021/12/08 07:23:18;;;;;;;3.38;1.33;;;6.00;99.90;;;;;;4994952;28;20041;-73
2021/12/08 07:25:44;;;;;;;4.22;1.55;;;5.90;99.90;;;;;;4995011;28;20098;-76
2021/12/08 07:28:12;;;;;;;7.93;1.95;;;6.00;99.90;;;;;;4993888;28;20039;-75
2021/12/08 07:30:47;;;;;;;2.78;0.95;;;6.00;99.90;;;;;;4994742;28;20057;-75
2021/12/08 07:33:13;;;;;;;5.00;1.00;;;6.00;99.90;;;;;;4994597;28;20026;-72
2021/12/08 07:35:43;;;;;;;6.88;2.08;;;6.00;99.90;;;;;;4994288;28;20037;-75
2021/12/08 07:38:13;;;;;;;5.85;1.58;;;6.00;99.90;;;;;;4994292;28;20026;-74
2021/12/08 07:40:44;;;;;;;4.18;1.30;;;6.00;99.90;;;;;;4994131;28;20081;-73
2021/12/08 07:43:14;;;;;;;7.53;1.67;;;6.00;99.90;;;;;;4994751;28;20026;-74
2021/12/08 07:45:47;;;;;;;7.35;3.10;;;6.10;99.90;;;;;;4994151;28;20022;-73
2021/12/08 07:48:24;;;;;;;9.73;5.25;;;6.00;99.90;;;;;;4994338;28;20038;-74
2021/12/08 07:50:56;;;;;;;3.92;1.42;;;6.00;99.90;;;;;;4994388;28;20026;-76
2021/12/08 07:53:24;;;;;;;3.45;1.65;;;6.00;99.90;;;;;;4994080;28;20022;-77
2021/12/08 07:55:56;;;;;;;4.00;2.03;;;6.00;99.90;;;;;;4994566;28;20025;-75
2021/12/08 07:58:22;;;;;;;2.20;1.20;;;6.00;99.90;;;;;;4994291;28;20085;-76
2021/12/08 08:00:57;;;;;;;5.18;1.92;;;5.90;99.90;;;;;;4994253;28;20026;-74
2021/12/08 08:03:25;;;;;;;7.03;2.13;;;5.90;99.90;;;;;;4975739;28;20034;-75
2021/12/08 08:05:53;;;;;;;5.55;1.67;;;5.90;99.90;;;;;;4993457;28;20026;-72
2021/12/08 08:08:20;;;;;;;4.57;1.60;;;5.90;99.90;;;;;;4993813;28;20118;-72
2021/12/08 08:10:55;;;;;;;3.28;1.13;;;5.90;99.90;;;;;;4994117;28;20042;-76
2021/12/08 08:13:22;;;;;;;10.95;3.70;;;5.90;99.90;;;;;;4994378;28;20097;-75
2021/12/08 08:15:53;;;;;;;10.93;4.22;;;5.90;99.90;;;;;;4993771;28;20065;-76
2021/12/08 08:18:23;;;;;;;2.95;1.60;;;5.90;99.90;;;;;;4993867;28;20034;-75
2021/12/08 08:20:52;;;;;;;2.92;1.30;;;5.80;99.90;;;;;;4994083;28;20057;-76
2021/12/08 08:23:21;;;;;;;3.90;1.65;;;5.90;99.90;;;;;;4993644;28;20058;-77
2021/12/08 08:25:51;;;;;;;4.72;1.85;;;5.80;99.90;;;;;;4993694;28;20109;-76
2021/12/08 08:28:18;;;;;;;3.40;1.30;;;5.90;99.90;;;;;;4993211;28;20047;-77
2021/12/08 08:30:49;;;;;;;4.40;1.92;;;5.90;99.90;;;;;;4993754;28;20042;-75
2021/12/08 08:33:15;;;;;;;3.75;1.77;;;5.90;99.90;;;;;;4993726;28;20030;-73
2021/12/08 08:35:48;;;;;;;8.10;2.90;;;5.90;99.90;;;;;;4993655;28;20026;-77
2021/12/08 08:38:19;;;;;;;34.17;15.20;;;5.90;99.90;;;;;;4993949;28;20026;-76
2021/12/08 08:40:51;;;;;;;34.13;17.00;;;5.90;99.90;;;;;;4993657;28;20030;-74
2021/12/08 08:43:18;;;;;;;49.13;26.25;;;6.00;99.90;;;;;;4993736;28;20478;-73
2021/12/08 08:45:51;;;;;;;13.57;7.10;;;6.00;99.90;;;;;;4993537;28;20061;-74
2021/12/08 08:48:22;;;;;;;6.70;2.85;;;6.00;99.90;;;;;;4993786;28;20093;-74
2021/12/08 08:51:04;;;;;;;4.93;2.25;;;6.10;99.90;;;;;;4993542;28;20023;-74
2021/12/08 08:53:34;;;;;;;10.02;4.57;;;6.10;99.90;;;;;;4994099;28;20113;-71
2021/12/08 08:56:11;;;;;;;8.73;4.15;;;6.00;99.90;;;;;;4993512;28;20046;-76
2021/12/08 08:58:46;;;;;;;12.35;7.63;;;6.00;99.90;;;;;;4993996;28;20109;-74
2021/12/08 09:01:22;;;;;;;6.47;2.75;;;6.00;99.90;;;;;;4993447;28;20101;-74
2021/12/08 09:03:57;;;;;;;10.18;6.07;;;5.90;99.90;;;;;;4993711;28;20045;-74
2021/12/08 09:06:28;;;;;;;8.40;4.45;;;5.80;99.90;;;;;;4975705;28;20026;-78
2021/12/08 09:08:54;;;;;;;5.47;2.85;;;5.80;99.90;;;;;;4993517;28;20085;-75
2021/12/08 09:11:28;;;;;;;6.75;2.97;;;5.80;99.90;;;;;;4993330;28;20479;-73
2021/12/08 09:14:15;;;;;;;8.55;2.55;;;5.80;99.90;;;;;;4993884;28;20459;-74
2021/12/08 09:17:05;;;;;;;3.78;1.73;;;5.70;99.90;;;;;;4996092;28;20026;-76
2021/12/08 09:19:39;;;;;;;9.18;2.40;;;5.70;99.90;;;;;;4997085;28;20030;-73
2021/12/08 09:22:29;;;;;;;5.88;2.30;;;5.80;99.90;;;;;;4997318;28;20035;-74
2021/12/08 09:25:10;;;;;;;8.00;3.00;;;6.00;99.90;;;;;;4996621;28;20541;-77
2021/12/08 09:27:40;;;;;;;8.43;2.78;;;6.30;99.90;;;;;;4996524;28;20105;-77
2021/12/08 09:30:32;;;;;;;;;;;6.60;99.90;;;;;;4997347;28;20113;-73
2021/12/08 09:33:11;;;;;;;7.00;3.72;;;7.00;99.90;;;;;;4996857;28;19909;-75
2021/12/08 09:35:45;;;;;;;6.80;2.50;;;7.20;99.90;;;;;;4996510;28;20025;-75
2021/12/08 09:38:25;;;;;;;4.00;1.60;;;7.30;99.90;;;;;;4996770;28;20034;-74
2021/12/08 09:41:00;;;;;;;4.78;1.20;;;7.50;99.90;;;;;;4996484;28;20054;-73
2021/12/08 09:43:33;;;;;;;6.68;2.88;;;7.50;99.90;;;;;;4996663;28;20073;-76
2021/12/08 09:46:07;;;;;;;4.30;1.95;;;7.60;99.90;;;;;;4996590;28;20401;-74
2021/12/08 09:48:33;;;;;;;10.98;5.00;;;7.50;99.90;;;;;;4996477;28;20030;-76
2021/12/08 09:51:00;;;;;;;8.88;2.40;;;7.50;99.90;;;;;;4996438;28;20022;-74
2021/12/08 09:53:26;;;;;;;2.70;1.60;;;7.50;99.90;;;;;;4996140;28;20022;-75
2021/12/08 09:55:54;;;;;;;4.55;1.77;;;7.50;99.90;;;;;;4996120;28;20030;-76
2021/12/08 09:58:20;;;;;;;4.07;1.45;;;7.60;99.90;;;;;;4996072;28;20537;-77
2021/12/08 10:00:48;;;;;;;5.07;1.70;;;7.50;99.90;;;;;;4996033;28;20026;-75
2021/12/08 10:03:16;;;;;;;2.10;1.10;;;7.50;99.90;;;;;;4996024;28;20422;-71
2021/12/08 10:05:42;;;;;;;4.63;1.83;;;7.40;99.90;;;;;;4978430;28;20057;-75
2021/12/08 10:08:09;;;;;;;4.13;1.67;;;7.50;99.90;;;;;;4995826;28;20026;-76
2021/12/08 10:10:37;;;;;;;4.47;1.63;;;7.50;99.90;;;;;;4995893;28;20028;-73
2021/12/08 10:13:04;;;;;;;6.35;1.60;;;7.60;99.90;;;;;;4995818;28;20475;-77
2021/12/08 10:15:30;;;;;;;5.30;1.55;;;7.70;99.90;;;;;;4995777;28;20510;-72
2021/12/08 10:17:57;;;;;;;7.00;1.40;;;7.70;99.90;;;;;;4995676;28;20037;-78
2021/12/08 10:20:31;;;;;;;7.25;1.17;;;7.80;99.90;;;;;;4995687;28;20026;-78
2021/12/08 10:23:23;;;;;;;3.55;1.10;;;7.80;99.90;;;;;;4977847;28;20450;-74
2021/12/08 10:25:53;;;;;;;3.75;2.58;;;7.80;99.90;;;;;;4995864;28;20019;-73
2021/12/08 10:28:25;;;;;;;2.38;1.58;;;7.90;99.90;;;;;;4994129;28;20049;-74
2021/12/08 10:31:07;;;;;;;7.30;2.53;;;7.90;99.90;;;;;;4996036;28;20030;-73
2021/12/08 10:34:25;;;;;;;3.83;1.60;;;8.00;99.90;;;;;;4995998;28;20054;-74
2021/12/08 10:36:45;;;;;;;7.22;3.10;;;8.00;99.90;;;;;;4978305;28;20034;-75
2021/12/08 10:39:19;;;;;;;6.32;2.00;;;8.00;99.90;;;;;;4956106;28;20418;-74
2021/12/08 10:42:18;;;;;;;5.55;2.25;;;7.90;99.90;;;;;;4995757;28;20033;-75
2021/12/08 10:45:15;;;;;;;6.43;2.25;;;7.90;99.90;;;;;;4995187;28;20031;-76
2021/12/08 10:47:47;;;;;;;8.15;2.55;;;7.90;99.90;;;;;;4977374;28;20030;-74
2021/12/08 10:55:57;;;;;;;3.05;1.50;;;7.90;99.90;;;;;;4995305;28;20033;-75
2021/12/08 10:58:27;;;;;;;5.00;1.98;;;8.00;99.90;;;;;;4994961;28;20022;-76
2021/12/08 11:00:55;;;;;;;3.70;1.40;;;7.90;99.90;;;;;;4994904;28;20026;-72
2021/12/08 11:03:21;;;;;;;7.55;2.55;;;7.90;99.90;;;;;;4994818;28;20453;-75
2021/12/08 11:05:49;;;;;;;5.28;2.00;;;7.90;99.90;;;;;;4995080;28;20023;-74
2021/12/08 11:08:35;;;;;;;9.85;3.83;;;7.90;99.90;;;;;;4994658;28;20558;-75
2021/12/08 11:11:04;;;;;;;7.53;3.10;;;7.90;99.90;;;;;;4993883;28;20093;-75
2021/12/08 11:13:36;;;;;;;4.18;1.40;;;7.90;99.90;;;;;;4994664;28;20084;-75
2021/12/08 11:16:02;;;;;;;5.00;2.35;;;7.90;99.90;;;;;;4994679;28;20438;-72
2021/12/08 11:18:30;;;;;;;6.25;1.90;;;7.90;99.90;;;;;;4994587;28;20026;-75
2021/12/08 11:21:19;;;;;;;3.80;2.05;;;7.90;99.90;;;;;;4994550;28;20030;-75
2021/12/08 11:23:49;;;;;;;6.55;2.95;;;7.90;99.90;;;;;;4994434;28;20030;-76
2021/12/08 11:26:33;;;;;;;5.20;2.07;;;7.80;99.90;;;;;;4994267;28;20471;-76
2021/12/08 11:29:20;;;;;;;6.28;2.45;;;7.90;99.90;;;;;;4994674;28;20117;-77
2021/12/08 11:31:50;;;;;;;4.45;2.40;;;7.90;99.90;;;;;;4976680;28;20061;-75
2021/12/08 11:34:34;;;;;;;5.95;2.33;;;7.80;99.90;;;;;;4994396;28;20026;-77
2021/12/08 11:37:07;;;;;;;3.70;1.48;;;7.80;99.90;;;;;;4994625;28;20031;-77
2021/12/08 11:39:38;;;;;;;7.38;1.80;;;7.90;99.90;;;;;;4994142;28;20497;-75
2021/12/08 11:42:06;;;;;;;3.78;2.00;;;7.80;99.90;;;;;;4994238;28;20541;-74
2021/12/08 11:44:36;;;;;;;2.83;1.70;;;7.90;99.90;;;;;;4994206;28;20033;-76
2021/12/08 11:47:08;;;;;;;4.80;2.03;;;7.90;99.90;;;;;;4994104;28;20056;-75
2021/12/08 11:49:39;;;;;;;4.65;1.50;;;7.90;99.90;;;;;;4994134;28;20018;-73
2021/12/08 11:52:10;;;;;;;3.70;1.85;;;7.80;99.90;;;;;;4976403;28;20398;-77
2021/12/08 11:54:41;;;;;;;2.05;1.25;;;7.90;99.90;;;;;;4994102;28;20104;-76
2021/12/08 11:57:23;;;;;;;3.60;1.17;;;7.90;99.90;;;;;;4994283;28;20084;-73
2021/12/08 11:59:55;;;;;;;4.07;1.90;;;7.90;99.90;;;;;;4994182;28;20041;-74
2021/12/08 12:02:37;;;;;;;4.90;2.50;;;7.90;99.90;;;;;;4994266;28;20029;-75
2021/12/08 12:05:06;;;;;;;3.35;1.35;;;7.90;99.90;;;;;;4994236;28;20474;-73
2021/12/08 12:07:32;;;;;;;7.18;1.85;;;7.90;99.90;;;;;;4993734;28;20038;-74
2021/12/08 12:09:58;;;;;;;4.55;1.73;;;8.00;99.90;;;;;;4994148;28;20018;-76
2021/12/08 12:12:23;;;;;;;4.47;1.63;;;8.00;99.90;;;;;;4976675;28;20050;-76
2021/12/08 12:14:49;;;;;;;5.25;2.05;;;8.00;99.90;;;;;;4993824;28;20029;-76
2021/12/08 12:17:15;;;;;;;3.65;2.17;;;8.00;99.90;;;;;;4994048;28;20033;-76
2021/12/08 12:19:57;;;;;;;3.85;1.75;;;8.10;99.90;;;;;;4993747;28;20110;-75
2021/12/08 12:22:27;;;;;;;8.45;2.55;;;8.00;99.90;;;;;;4994079;28;20026;-76
2021/12/08 12:25:15;;;;;;;6.10;2.00;;;8.00;99.90;;;;;;4994005;28;20054;-75
2021/12/08 12:28:05;;;;;;;4.45;2.30;;;8.00;99.90;;;;;;4993651;28;20054;-73
2021/12/08 12:30:51;;;;;;;4.25;2.50;;;8.00;99.90;;;;;;4994012;28;20034;-78
2021/12/08 12:33:20;;;;;;;3.88;1.88;;;8.10;99.90;;;;;;4993968;28;20034;-77
2021/12/08 12:35:54;;;;;;;6.18;1.95;;;8.10;99.90;;;;;;4993711;28;20053;-76
2021/12/08 12:38:39;;;;;;;3.20;1.77;;;8.10;99.90;;;;;;4993926;28;20022;-74
2021/12/08 12:41:07;;;;;;;2.20;1.20;;;8.10;99.90;;;;;;4993904;28;20027;-77
2021/12/08 12:43:39;;;;;;;4.68;1.98;;;8.10;99.90;;;;;;4993581;28;20053;-75
2021/12/08 12:46:07;;;;;;;5.55;2.70;;;8.00;99.90;;;;;;4993900;28;20042;-76
2021/12/08 12:48:37;;;;;;;6.28;1.95;;;8.00;99.90;;;;;;4976096;28;20031;-75
2021/12/08 12:51:05;;;;;;;4.63;1.63;;;7.90;99.90;;;;;;4995350;28;20026;-74
2021/12/08 12:53:39;;;;;;;4.68;2.00;;;7.90;99.90;;;;;;4997257;28;20093;-76
2021/12/08 12:56:34;;;;;;;5.68;1.38;;;7.90;99.90;;;;;;4997227;28;20402;-75
2021/12/08 12:59:14;;;;;;;5.10;2.05;;;7.90;99.90;;;;;;4988057;28;20051;-75
2021/12/08 13:01:46;;;;;;;;;;;8.00;99.90;;;;;;4998166;28;20034;-77
2021/12/08 13:04:21;;;;;;;8.05;5.10;;;8.00;99.90;;;;;;4997382;28;20000;-76
2021/12/08 13:06:48;;;;;;;16.10;5.15;;;8.10;99.90;;;;;;4979519;28;20022;-76
2021/12/08 13:09:33;;;;;;;12.27;7.65;;;8.20;99.90;;;;;;4996916;28;20041;-72
2021/12/08 13:12:26;;;;;;;8.73;4.35;;;8.30;99.90;;;;;;4997184;28;20029;-75
2021/12/08 13:15:19;;;;;;;4.65;2.30;;;8.40;99.90;;;;;;4967616;28;20042;-74
2021/12/08 13:18:07;;;;;;;6.38;3.03;;;8.50;99.90;;;;;;4997136;28;20101;-75
2021/12/08 13:20:45;;;;;;;7.22;3.05;;;8.50;99.90;;;;;;4996774;28;20479;-77
2021/12/08 13:23:21;;;;;;;6.70;3.33;;;8.60;99.90;;;;;;4996757;28;20037;-75
2021/12/08 13:25:55;;;;;;;2.80;0.90;;;8.70;99.90;;;;;;4979008;28;20034;-76
2021/12/08 13:28:30;;;;;;;2.47;1.05;;;8.60;99.90;;;;;;4996199;28;20078;-74
2021/12/08 13:31:26;;;;;;;4.75;2.40;;;8.60;99.90;;;;;;4979092;28;20030;-74
2021/12/08 13:33:51;;;;;;;3.70;1.52;;;8.60;99.90;;;;;;4996866;28;20042;-75
2021/12/08 13:36:20;;;;;;;3.65;2.22;;;8.70;99.90;;;;;;4996518;28;20474;-75
2021/12/08 13:39:11;;;;;;;4.28;1.05;;;8.60;99.90;;;;;;4979011;28;20027;-77
2021/12/08 13:41:39;;;;;;;6.03;1.85;;;8.60;99.90;;;;;;4996724;28;20470;-77
2021/12/08 13:44:36;;;;;;;2.97;1.27;;;8.50;99.90;;;;;;4996693;28;20093;-74
2021/12/08 13:47:25;;;;;;;5.10;2.00;;;8.50;99.90;;;;;;4996582;28;20042;-73
2021/12/08 13:49:57;;;;;;;6.45;1.90;;;8.50;99.90;;;;;;4996316;28;20019;-77
2021/12/08 13:52:26;;;;;;;6.68;1.90;;;8.50;99.90;;;;;;4996234;28;20037;-77
2021/12/08 13:54:54;;;;;;;4.43;1.30;;;8.50;99.90;;;;;;4996132;28;20027;-77
2021/12/08 13:57:41;;;;;;;2.30;0.90;;;8.50;99.90;;;;;;4996576;28;20027;-77
2021/12/08 14:00:16;;;;;;;8.88;1.15;;;8.60;99.90;;;;;;4996357;28;20495;-73
2021/12/08 14:02:44;;;;;;;3.67;1.33;;;8.70;99.90;;;;;;4995999;28;20467;-72
2021/12/08 14:05:21;;;;;;;3.47;1.38;;;8.80;99.90;;;;;;4995988;28;20026;-76
2021/12/08 14:07:49;;;;;;;3.38;0.80;;;8.80;99.90;;;;;;4995882;28;20407;-74
2021/12/08 14:10:23;;;;;;;5.03;1.13;;;8.90;99.90;;;;;;4995876;28;20055;-79